Ankergracht — PCQL — position and weather

sailwx.info

Track history (hours):
 
Tides and Currents Weather Stations Pressure Air Temp Water Temp Dewpoint Dewpoint Depression Visibility Wind Speed Wind Dir Waves Ship Positions

Ankergracht

Last reported at 2015-Jul-17 03:16 UTC. Time now 2015-Aug-29 06:09 UTC.
Position N 35°18' W 024°53'.
Warning: this ship's position is 43 days out of date.

Length 130 m; beam 19 m; draft 9 m.

Type: Cargo ship. MMSI: 244852000.

Date/timePositionNaut miles runAvg speedWind from/ knotsBaromVisibWave heightAir tempDewpointWater temp
2015-Jul-17 03:16N 35°18' W 024°53'2112.0
2015-Jul-17 01:32N 35°23' W 024°28'1212.3
2015-Jul-17 00:33N 35°26' W 024°13'2812.4
2015-Jul-16 22:18N 35°33' W 023°41'51312.5
2015-Jul-15 05:14N 37°32' W 013°20'5812.2
2015-Jul-15 00:31N 37°47' W 012°09'1212.4
2015-Jul-14 23:31N 37°50' W 011°54'1212.6
2015-Jul-14 22:33N 37°53' W 011°39'1312.9
2015-Jul-14 21:32N 37°55' W 011°23'1312.7
2015-Jul-14 20:33N 37°58' W 011°08'1312.5
2015-Jul-14 19:31N 38°01' W 010°52'1212.4
2015-Jul-14 18:33N 38°04' W 010°37'1212.2
2015-Jul-14 17:33N 38°07' W 010°22'1212.4
2015-Jul-14 16:33N 38°10' W 010°06'1212.5
2015-Jul-14 15:33N 38°12' W 009°51'1212.2
2015-Jul-14 14:33N 38°15' W 009°36'1212.1
2015-Jul-14 13:33N 38°17' W 009°21'1212.1
2015-Jul-14 12:33N 38°21' W 009°06'1111.3
2015-Jul-14 11:33N 38°29' W 008°56'3 3.1
2015-Jul-14 10:31N 38°31' W 008°52'0 0.0
2015-Jul-14 09:31N 38°31' W 008°52'0 0.0
2015-Jul-14 08:28N 38°31' W 008°52'0 0.0
2015-Jul-14 07:28N 38°31' W 008°52'0 0.0
2015-Jul-14 06:31N 38°31' W 008°52'0 0.0
2015-Jul-14 05:31N 38°31' W 008°52'0 0.0
2015-Jul-14 04:31N 38°31' W 008°52'0 0.0
2015-Jul-14 03:28N 38°31' W 008°52'0 0.0
2015-Jul-14 02:22N 38°31' W 008°52'0 0.0
2015-Jul-14 01:31N 38°31' W 008°52'0 0.0
2015-Jul-14 00:31N 38°31' W 008°52'0 0.0
2015-Jul-13 23:31N 38°31' W 008°52'0 0.0
2015-Jul-13 22:31N 38°31' W 008°52'0 0.0
2015-Jul-13 21:28N 38°31' W 008°52'0 0.0
2015-Jul-13 20:28N 38°31' W 008°52'0 0.0
2015-Jul-13 19:31N 38°31' W 008°52'0 0.0
2015-Jul-13 18:31N 38°31' W 008°52'0 0.0
2015-Jul-13 17:31N 38°31' W 008°52'0 0.0
2015-Jul-13 16:25N 38°31' W 008°52'0 0.0
2015-Jul-13 15:28N 38°31' W 008°52'0 0.0
2015-Jul-13 14:28N 38°31' W 008°52'0 0.0
2015-Jul-11 22:32N 38°31' W 008°52'8 7.7
2015-Jul-11 21:32N 38°26' W 008°60'9 9.4
2015-Jul-11 20:33N 38°20' W 009°09'1212.3
2015-Jul-11 19:34N 38°21' W 009°24'1312.8
2015-Jul-11 18:33N 38°26' W 009°39'1313.2
2015-Jul-11 17:33N 38°30' W 009°55'1111.3
2015-Jul-11 16:33N 38°39' W 010°05'1413.8
2015-Jul-11 15:33N 38°53' W 010°06'1413.8
2015-Jul-11 14:33N 39°07' W 010°06'1313.2
2015-Jul-11 13:33N 39°20' W 010°06'  
2015-Jul-09 08:30N 49°17' W 004°49'1711.8
2015-Jul-09 07:04N 49°25' W 004°27'712.4
2015-Jul-09 06:28N 49°29' W 004°17'5512.5
2015-Jul-09 02:05N 49°56' W 003°03'810.6
2015-Jul-09 01:22N 50°00' W 002°53'11912.0
2015-Jul-08 15:28N 50°32' E 000°06'1010.8
2015-Jul-08 14:33N 50°35' E 000°21'9 9.2
2015-Jul-08 13:33N 50°38' E 000°34'10 9.9
2015-Jul-08 12:34N 50°44' E 000°47'2411.9
2015-Jul-08 10:31N 50°59' E 001°17'1212.7
2015-Jul-08 09:34N 51°06' E 001°33'1211.5
2015-Jul-08 08:33N 51°14' E 001°46'1110.6
2015-Jul-08 07:34N 51°22' E 001°56'9 8.8
2015-Jul-08 06:34N 51°22' E 002°10'9 9.0
2015-Jul-08 05:33N 51°22' E 002°25'9 9.0
2015-Jul-08 04:34N 51°23' E 002°39'9 9.1
2015-Jul-08 03:33N 51°23' E 002°54'1010.3
2015-Jul-08 02:33N 51°24' E 003°10'1211.6
2015-Jul-08 01:33N 51°25' E 003°29'9 8.9
2015-Jul-08 00:34N 51°24' E 003°43'1111.1
2015-Jul-07 23:34N 51°26' E 003°60'1111.1
2015-Jul-07 22:33N 51°21' E 004°16'5 5.1
2015-Jul-07 21:34N 51°17' E 004°20'1 0.8
2015-Jul-07 20:33N 51°17' E 004°21'1 0.9
2015-Jul-07 19:32N 51°17' E 004°23'0 0.0
2015-Jul-07 18:32N 51°17' E 004°23'0 0.0
2015-Jul-07 17:32N 51°17' E 004°23'0 0.0
2015-Jul-07 16:32N 51°17' E 004°23'0 0.0
2015-Jul-07 15:32N 51°17' E 004°23'0 0.0
2015-Jul-07 14:32N 51°17' E 004°23'0 0.0
2015-Jul-07 13:32N 51°17' E 004°23'0 0.0
2015-Jul-07 12:32N 51°17' E 004°23'0 0.0
2015-Jul-07 11:32N 51°17' E 004°23'0 0.0
2015-Jul-07 10:32N 51°17' E 004°23'0 0.0
2015-Jul-07 09:32N 51°17' E 004°23'0 0.0
2015-Jul-07 08:32N 51°17' E 004°23'0 0.0
2015-Jul-07 07:32N 51°17' E 004°23'0 0.0
2015-Jul-07 06:31N 51°17' E 004°23'0 0.0
2015-Jul-07 05:31N 51°17' E 004°23'0 0.0
2015-Jul-07 04:31N 51°17' E 004°23'0 0.0
2015-Jul-07 03:31N 51°17' E 004°23'  
Track history (hours):
 
Tides and Currents Weather Stations Pressure Air Temp Water Temp Dewpoint Dewpoint Depression Visibility Wind Speed Wind Dir Waves Ship Positions

Ankergracht

Last reported at 2015-Jul-17 03:16 UTC. Time now 2015-Aug-29 06:09 UTC.
Position N 35°18' W 024°53'.
Warning: this ship's position is 43 days out of date.

Length 130 m; beam 19 m; draft 9 m.

Type: Cargo ship. MMSI: 244852000.

Date/timePositionNaut miles runAvg speedWind from/ knotsBaromVisibWave heightAir tempDewpointWater temp
2015-Jul-17 03:16N 35°18' W 024°53'2112.0
2015-Jul-17 01:32N 35°23' W 024°28'1212.3
2015-Jul-17 00:33N 35°26' W 024°13'2812.4
2015-Jul-16 22:18N 35°33' W 023°41'51312.5
2015-Jul-15 05:14N 37°32' W 013°20'5812.2
2015-Jul-15 00:31N 37°47' W 012°09'1212.4
2015-Jul-14 23:31N 37°50' W 011°54'1212.6
2015-Jul-14 22:33N 37°53' W 011°39'1312.9
2015-Jul-14 21:32N 37°55' W 011°23'1312.7
2015-Jul-14 20:33N 37°58' W 011°08'1312.5
2015-Jul-14 19:31N 38°01' W 010°52'1212.4
2015-Jul-14 18:33N 38°04' W 010°37'1212.2
2015-Jul-14 17:33N 38°07' W 010°22'1212.4
2015-Jul-14 16:33N 38°10' W 010°06'1212.5
2015-Jul-14 15:33N 38°12' W 009°51'1212.2
2015-Jul-14 14:33N 38°15' W 009°36'1212.1
2015-Jul-14 13:33N 38°17' W 009°21'1212.1
2015-Jul-14 12:33N 38°21' W 009°06'1111.3
2015-Jul-14 11:33N 38°29' W 008°56'3 3.1
2015-Jul-14 10:31N 38°31' W 008°52'0 0.0
2015-Jul-14 09:31N 38°31' W 008°52'0 0.0
2015-Jul-14 08:28N 38°31' W 008°52'0 0.0
2015-Jul-14 07:28N 38°31' W 008°52'0 0.0
2015-Jul-14 06:31N 38°31' W 008°52'0 0.0
2015-Jul-14 05:31N 38°31' W 008°52'0 0.0
2015-Jul-14 04:31N 38°31' W 008°52'0 0.0
2015-Jul-14 03:28N 38°31' W 008°52'0 0.0
2015-Jul-14 02:22N 38°31' W 008°52'0 0.0
2015-Jul-14 01:31N 38°31' W 008°52'0 0.0
2015-Jul-14 00:31N 38°31' W 008°52'0 0.0
2015-Jul-13 23:31N 38°31' W 008°52'0 0.0
2015-Jul-13 22:31N 38°31' W 008°52'0 0.0
2015-Jul-13 21:28N 38°31' W 008°52'0 0.0
2015-Jul-13 20:28N 38°31' W 008°52'0 0.0
2015-Jul-13 19:31N 38°31' W 008°52'0 0.0
2015-Jul-13 18:31N 38°31' W 008°52'0 0.0
2015-Jul-13 17:31N 38°31' W 008°52'0 0.0
2015-Jul-13 16:25N 38°31' W 008°52'0 0.0
2015-Jul-13 15:28N 38°31' W 008°52'0 0.0
2015-Jul-13 14:28N 38°31' W 008°52'0 0.0
2015-Jul-11 22:32N 38°31' W 008°52'8 7.7
2015-Jul-11 21:32N 38°26' W 008°60'9 9.4
2015-Jul-11 20:33N 38°20' W 009°09'1212.3
2015-Jul-11 19:34N 38°21' W 009°24'1312.8
2015-Jul-11 18:33N 38°26' W 009°39'1313.2
2015-Jul-11 17:33N 38°30' W 009°55'1111.3
2015-Jul-11 16:33N 38°39' W 010°05'1413.8
2015-Jul-11 15:33N 38°53' W 010°06'1413.8
2015-Jul-11 14:33N 39°07' W 010°06'1313.2
2015-Jul-11 13:33N 39°20' W 010°06'  
2015-Jul-09 08:30N 49°17' W 004°49'1711.8
2015-Jul-09 07:04N 49°25' W 004°27'712.4
2015-Jul-09 06:28N 49°29' W 004°17'5512.5
2015-Jul-09 02:05N 49°56' W 003°03'810.6
2015-Jul-09 01:22N 50°00' W 002°53'11912.0
2015-Jul-08 15:28N 50°32' E 000°06'1010.8
2015-Jul-08 14:33N 50°35' E 000°21'9 9.2
2015-Jul-08 13:33N 50°38' E 000°34'10 9.9
2015-Jul-08 12:34N 50°44' E 000°47'2411.9
2015-Jul-08 10:31N 50°59' E 001°17'1212.7
2015-Jul-08 09:34N 51°06' E 001°33'1211.5
2015-Jul-08 08:33N 51°14' E 001°46'1110.6
2015-Jul-08 07:34N 51°22' E 001°56'9 8.8
2015-Jul-08 06:34N 51°22' E 002°10'9 9.0
2015-Jul-08 05:33N 51°22' E 002°25'9 9.0
2015-Jul-08 04:34N 51°23' E 002°39'9 9.1
2015-Jul-08 03:33N 51°23' E 002°54'1010.3
2015-Jul-08 02:33N 51°24' E 003°10'1211.6
2015-Jul-08 01:33N 51°25' E 003°29'9 8.9
2015-Jul-08 00:34N 51°24' E 003°43'1111.1
2015-Jul-07 23:34N 51°26' E 003°60'1111.1
2015-Jul-07 22:33N 51°21' E 004°16'5 5.1
2015-Jul-07 21:34N 51°17' E 004°20'1 0.8
2015-Jul-07 20:33N 51°17' E 004°21'1 0.9
2015-Jul-07 19:32N 51°17' E 004°23'0 0.0
2015-Jul-07 18:32N 51°17' E 004°23'0 0.0
2015-Jul-07 17:32N 51°17' E 004°23'0 0.0
2015-Jul-07 16:32N 51°17' E 004°23'0 0.0
2015-Jul-07 15:32N 51°17' E 004°23'0 0.0
2015-Jul-07 14:32N 51°17' E 004°23'0 0.0
2015-Jul-07 13:32N 51°17' E 004°23'0 0.0
2015-Jul-07 12:32N 51°17' E 004°23'0 0.0
2015-Jul-07 11:32N 51°17' E 004°23'0 0.0
2015-Jul-07 10:32N 51°17' E 004°23'0 0.0
2015-Jul-07 09:32N 51°17' E 004°23'0 0.0
2015-Jul-07 08:32N 51°17' E 004°23'0 0.0
2015-Jul-07 07:32N 51°17' E 004°23'0 0.0
2015-Jul-07 06:31N 51°17' E 004°23'0 0.0
2015-Jul-07 05:31N 51°17' E 004°23'0 0.0
2015-Jul-07 04:31N 51°17' E 004°23'0 0.0
2015-Jul-07 03:31N 51°17' E 004°23'  

Dump ship's entire track history